Time;durP1;ratioP1;P1;durP2;ratioP2;P2;SDS_P1;SDS_P2;PMS_P1;PMS_P2;Temp;Humidity;BMP_temperature;BMP_pressure;BME280_temperature;BME280_humidity;BME280_pressure;Samples;Min_cycle;Max_cycle;Signal;HPM_P1;HPM_P2
2023/09/26 00:00:29;;;;;;;23.47;4.73;;;21.20;72.40;;;;;;5117760;27;20189;-72
2023/09/26 00:02:56;;;;;;;28.10;5.20;;;21.10;71.70;;;;;;5121490;27;20209;-79
2023/09/26 00:05:23;;;;;;;33.83;5.40;;;20.90;73.00;;;;;;5117717;27;20260;-75
2023/09/26 00:07:51;;;;;;;21.47;4.47;;;21.10;71.90;;;;;;5103955;27;20524;-81
2023/09/26 00:10:19;;;;;;;20.23;4.37;;;21.30;71.60;;;;;;5098989;28;20221;-84
2023/09/26 00:12:47;;;;;;;26.40;4.90;;;21.20;70.70;;;;;;5122402;27;20177;-77
2023/09/26 00:15:15;;;;;;;26.10;4.27;;;21.10;71.10;;;;;;5098223;28;20542;-72
2023/09/26 00:17:42;;;;;;;18.73;5.43;;;21.00;71.40;;;;;;5121154;27;20269;-75
2023/09/26 00:20:10;;;;;;;24.30;4.63;;;21.00;71.60;;;;;;5119198;27;20177;-74
2023/09/26 00:22:37;;;;;;;21.63;4.90;;;20.50;72.10;;;;;;5121676;27;20329;-74
2023/09/26 00:25:06;;;;;;;19.70;5.33;;;20.30;73.30;;;;;;5119462;27;20753;-73
2023/09/26 00:27:33;;;;;;;24.63;5.13;;;20.30;73.10;;;;;;5120460;28;20627;-74
2023/09/26 00:30:00;;;;;;;24.83;4.73;;;20.30;73.70;;;;;;5116998;28;20205;-70
2023/09/26 00:32:30;;;;;;;23.83;4.40;;;20.40;73.10;;;;;;5120803;28;21442;-74
2023/09/26 00:34:57;;;;;;;25.43;4.63;;;20.40;72.60;;;;;;5116483;28;20221;-74
2023/09/26 00:37:24;;;;;;;26.55;5.63;;;20.20;73.10;;;;;;5119591;27;20489;-70
2023/09/26 00:39:53;;;;;;;21.57;5.07;;;20.20;73.40;;;;;;5117788;28;20181;-72
2023/09/26 00:42:20;;;;;;;15.83;3.87;;;20.30;72.70;;;;;;5120982;28;20226;-70
2023/09/26 00:44:47;;;;;;;30.67;5.43;;;20.40;72.20;;;;;;5118279;28;20209;-73
2023/09/26 00:47:16;;;;;;;18.50;4.50;;;20.80;72.60;;;;;;5102298;28;20196;-74
2023/09/26 00:49:44;;;;;;;28.37;5.40;;;21.10;70.70;;;;;;5114952;28;20266;-74
2023/09/26 00:52:11;;;;;;;20.40;4.57;;;21.20;70.60;;;;;;5119264;27;20250;-73
2023/09/26 00:54:39;;;;;;;21.27;5.17;;;21.60;69.10;;;;;;5118907;28;20178;-72
2023/09/26 00:57:07;;;;;;;18.03;4.40;;;21.80;68.50;;;;;;5119751;28;20190;-75
2023/09/26 00:59:37;;;;;;;18.37;3.63;;;21.90;67.40;;;;;;5117805;28;20212;-75
2023/09/26 01:02:05;;;;;;;17.77;4.60;;;21.90;67.70;;;;;;5118310;28;20181;-73
2023/09/26 01:04:33;;;;;;;21.33;4.83;;;21.90;66.50;;;;;;5115912;27;20177;-73
2023/09/26 01:07:00;;;;;;;23.17;5.00;;;21.80;67.60;;;;;;5120190;28;20181;-74
2023/09/26 01:09:28;;;;;;;26.77;5.07;;;21.60;68.10;;;;;;5123571;28;20281;-76
2023/09/26 01:11:56;;;;;;;24.33;4.70;;;21.60;68.40;;;;;;5115535;27;20639;-75
2023/09/26 01:14:23;;;;;;;24.00;4.97;;;21.70;67.30;;;;;;5107129;27;20243;-74
2023/09/26 01:17:00;;;;;;;20.90;5.23;;;21.60;68.40;;;;;;5123637;27;20225;-78
2023/09/26 01:19:27;;;;;;;20.67;4.77;;;21.70;68.00;;;;;;5125996;27;20213;-75
2023/09/26 01:21:55;;;;;;;23.73;4.70;;;21.50;68.00;;;;;;5122391;27;20288;-75
2023/09/26 01:24:22;;;;;;;20.17;5.07;;;21.40;68.60;;;;;;5125714;27;20242;-72
2023/09/26 01:26:49;;;;;;;28.57;6.63;;;21.30;69.30;;;;;;5120636;27;20267;-78
2023/09/26 01:29:17;;;;;;;33.07;5.87;;;21.10;70.00;;;;;;5122566;27;20221;-78
2023/09/26 01:31:44;;;;;;;20.13;4.47;;;21.10;69.40;;;;;;5120223;27;20650;-72
2023/09/26 01:34:11;;;;;;;24.43;5.57;;;21.00;70.20;;;;;;5125148;27;20224;-77
2023/09/26 01:36:39;;;;;;;22.37;5.67;;;20.90;70.30;;;;;;5123556;27;20181;-77
2023/09/26 01:39:06;;;;;;;13.53;4.47;;;21.10;70.00;;;;;;5125239;27;20189;-77
2023/09/26 01:41:33;;;;;;;21.30;4.63;;;21.30;69.60;;;;;;5100801;27;20170;-76
2023/09/26 01:44:01;;;;;;;22.23;4.60;;;21.30;68.30;;;;;;5125268;27;20233;-74
2023/09/26 01:46:28;;;;;;;22.43;5.40;;;21.20;69.40;;;;;;5122788;27;20277;-75
2023/09/26 01:48:55;;;;;;;26.93;5.00;;;21.20;69.40;;;;;;5126155;27;20313;-76
2023/09/26 01:51:23;;;;;;;19.27;4.97;;;21.20;68.80;;;;;;5118937;27;20697;-73
2023/09/26 01:53:50;;;;;;;18.23;4.40;;;21.00;68.60;;;;;;5127172;27;20213;-74
2023/09/26 01:56:17;;;;;;;21.17;4.57;;;21.00;68.30;;;;;;5119881;27;20186;-74
2023/09/26 01:58:45;;;;;;;26.13;4.90;;;20.90;69.20;;;;;;5108826;27;20173;-74
2023/09/26 02:01:12;;;;;;;21.63;4.30;;;20.80;70.00;;;;;;5109750;27;20186;-73
2023/09/26 02:03:39;;;;;;;26.20;5.10;;;21.10;69.20;;;;;;5114785;27;20181;-77
2023/09/26 02:06:07;;;;;;;17.20;4.30;;;21.20;67.30;;;;;;5114678;27;20186;-73
2023/09/26 02:08:34;;;;;;;21.80;4.83;;;21.30;67.30;;;;;;5126702;27;20607;-76
2023/09/26 02:11:01;;;;;;;24.70;5.97;;;21.10;66.70;;;;;;5120489;27;20189;-75
2023/09/26 02:13:29;;;;;;;15.37;4.93;;;21.00;67.80;;;;;;5125976;27;20260;-80
2023/09/26 02:15:56;;;;;;;18.33;4.77;;;21.00;68.10;;;;;;5118991;27;20194;-78
2023/09/26 02:18:24;;;;;;;23.13;4.60;;;20.90;68.70;;;;;;5126010;27;20751;-73
2023/09/26 02:20:52;;;;;;;19.70;4.50;;;21.00;68.10;;;;;;5119395;27;20242;-81
2023/09/26 02:23:19;;;;;;;14.07;3.60;;;20.90;68.00;;;;;;5118799;27;20186;-78
2023/09/26 02:25:51;;;;;;;19.20;4.87;;;20.80;68.50;;;;;;5116533;27;20629;-76
2023/09/26 02:28:20;;;;;;;18.43;4.30;;;20.80;69.40;;;;;;5119051;27;20183;-74
2023/09/26 02:30:47;;;;;;;20.33;4.47;;;20.80;70.00;;;;;;5119058;27;20189;-79
2023/09/26 02:33:14;;;;;;;18.00;4.17;;;20.80;70.00;;;;;;5121791;27;20330;-79
2023/09/26 02:35:42;;;;;;;30.80;5.20;;;20.80;70.40;;;;;;5113767;27;20222;-81
2023/09/26 02:38:09;;;;;;;18.83;4.40;;;20.80;70.40;;;;;;5119367;27;20166;-82
2023/09/26 02:40:37;;;;;;;17.13;5.00;;;20.70;70.10;;;;;;5117034;27;20194;-79
2023/09/26 02:43:04;;;;;;;19.07;4.83;;;20.70;70.30;;;;;;5123843;27;20256;-80
2023/09/26 02:45:32;;;;;;;19.63;4.70;;;20.70;69.50;;;;;;5117761;27;20189;-84
2023/09/26 02:47:59;;;;;;;19.73;4.20;;;20.50;70.50;;;;;;5121940;27;20241;-82
2023/09/26 02:50:27;;;;;;;22.57;4.80;;;20.30;71.60;;;;;;5121595;27;20225;-75
2023/09/26 02:52:54;;;;;;;23.53;4.80;;;20.40;72.30;;;;;;5118693;27;20246;-76
2023/09/26 02:55:21;;;;;;;24.43;4.90;;;20.40;71.70;;;;;;5111875;27;20188;-79
2023/09/26 02:57:49;;;;;;;20.23;4.77;;;20.50;71.30;;;;;;5121493;27;20185;-79
2023/09/26 03:00:17;;;;;;;19.57;4.70;;;20.70;70.00;;;;;;5118470;27;20524;-77
2023/09/26 03:02:45;;;;;;;20.07;4.60;;;21.00;69.30;;;;;;5119472;27;20177;-75
2023/09/26 03:05:13;;;;;;;18.03;4.40;;;21.70;68.10;;;;;;5120890;27;20254;-74
2023/09/26 03:07:41;;;;;;;22.63;4.90;;;22.30;65.30;;;;;;5120448;27;20192;-71
2023/09/26 03:10:09;;;;;;;16.80;4.43;;;22.30;65.80;;;;;;5119841;27;20252;-77
2023/09/26 03:12:36;;;;;;;21.27;4.00;;;22.40;64.10;;;;;;5119844;27;20181;-75
2023/09/26 03:15:06;;;;;;;19.20;4.33;;;22.80;63.90;;;;;;5121088;27;20665;-73
2023/09/26 03:17:33;;;;;;;21.60;4.53;;;22.80;61.70;;;;;;5119230;27;20182;-74
2023/09/26 03:20:01;;;;;;;16.10;4.37;;;22.70;62.70;;;;;;5121054;27;20207;-78
2023/09/26 03:22:28;;;;;;;15.40;4.63;;;22.40;62.90;;;;;;5119285;27;20583;-71
2023/09/26 03:24:55;;;;;;;20.47;4.37;;;22.20;62.30;;;;;;5121203;27;20178;-75
2023/09/26 03:27:24;;;;;;;18.57;4.07;;;22.00;62.20;;;;;;5118936;27;20264;-78
2023/09/26 03:29:52;;;;;;;15.90;4.23;;;21.80;63.10;;;;;;5111904;27;21375;-75
2023/09/26 03:32:20;;;;;;;15.67;3.43;;;21.70;64.50;;;;;;5111138;27;20182;-73
2023/09/26 03:34:48;;;;;;;14.47;3.87;;;21.80;64.20;;;;;;5118147;27;20255;-74
2023/09/26 03:37:15;;;;;;;15.97;4.47;;;21.90;63.70;;;;;;5116906;27;20204;-75
2023/09/26 03:39:42;;;;;;;23.53;4.73;;;21.80;64.10;;;;;;5117528;27;20188;-72
2023/09/26 03:42:10;;;;;;;19.87;3.87;;;21.80;64.20;;;;;;5119115;27;20557;-78
2023/09/26 03:44:37;;;;;;;17.40;4.13;;;21.80;64.20;;;;;;5117834;27;20268;-75
2023/09/26 03:47:05;;;;;;;18.37;4.47;;;21.80;64.90;;;;;;5116474;27;20205;-73
2023/09/26 03:49:32;;;;;;;17.73;3.70;;;21.90;64.30;;;;;;5115242;27;20213;-77
2023/09/26 03:51:59;;;;;;;17.50;3.83;;;21.80;63.40;;;;;;5105065;27;20254;-77
2023/09/26 03:54:28;;;;;;;14.50;3.97;;;21.80;62.90;;;;;;5121532;27;20273;-76
2023/09/26 03:56:55;;;;;;;20.00;4.23;;;22.20;62.00;;;;;;5116314;27;20233;-74
2023/09/26 03:59:23;;;;;;;20.40;4.17;;;22.70;60.40;;;;;;5119244;27;20174;-75
2023/09/26 04:01:50;;;;;;;21.83;3.67;;;23.20;60.10;;;;;;5115228;27;20215;-74
2023/09/26 04:04:18;;;;;;;13.57;3.80;;;23.00;58.70;;;;;;5120002;27;20185;-74
2023/09/26 04:06:45;;;;;;;17.60;4.33;;;22.80;59.00;;;;;;5116163;27;20226;-72
2023/09/26 04:09:14;;;;;;;14.77;3.57;;;22.60;59.80;;;;;;5118607;27;20202;-73
2023/09/26 04:11:41;;;;;;;18.73;8.47;;;22.80;59.30;;;;;;5117123;27;20174;-76
2023/09/26 04:14:08;;;;;;;21.77;4.80;;;23.30;58.00;;;;;;5118944;27;20301;-73
2023/09/26 04:16:36;;;;;;;13.60;3.47;;;23.30;58.10;;;;;;5122294;27;20185;-75
2023/09/26 04:19:03;;;;;;;17.70;4.13;;;23.80;56.50;;;;;;5115185;28;20329;-75
2023/09/26 04:21:33;;;;;;;18.20;3.70;;;24.50;53.40;;;;;;5120928;27;20234;-76
2023/09/26 04:24:04;;;;;;;11.93;3.40;;;25.00;51.90;;;;;;5113587;27;20185;-74
2023/09/26 04:26:31;;;;;;;8.53;3.03;;;25.50;51.10;;;;;;5112935;27;20393;-71
2023/09/26 04:29:00;;;;;;;9.77;3.30;;;25.20;51.40;;;;;;5123637;27;20228;-72
2023/09/26 04:31:27;;;;;;;11.50;3.10;;;25.10;50.60;;;;;;5123869;27;20632;-74
2023/09/26 04:33:55;;;;;;;19.43;3.90;;;25.60;50.10;;;;;;5120367;28;20193;-72
2023/09/26 04:36:22;;;;;;;14.03;3.30;;;26.00;48.80;;;;;;5124987;28;20178;-76
2023/09/26 04:38:50;;;;;;;15.23;3.57;;;26.70;47.50;;;;;;5121058;28;20608;-75
2023/09/26 04:41:17;;;;;;;14.77;3.97;;;26.90;47.80;;;;;;5118360;28;20252;-75
2023/09/26 04:43:44;;;;;;;13.90;3.57;;;26.40;48.40;;;;;;5124313;28;20223;-74
2023/09/26 04:46:16;;;;;;;12.60;3.17;;;26.00;50.00;;;;;;5125757;27;20307;-74
2023/09/26 04:48:46;;;;;;;12.47;3.57;;;25.80;50.90;;;;;;5122285;27;20211;-75
2023/09/26 04:51:17;;;;;;;12.77;3.67;;;25.00;53.10;;;;;;5121670;27;20976;-74
2023/09/26 04:53:44;;;;;;;20.43;4.50;;;24.30;55.40;;;;;;5113988;27;20181;-77
2023/09/26 04:56:12;;;;;;;17.47;3.43;;;24.70;54.50;;;;;;5107820;27;20697;-79
2023/09/26 04:58:39;;;;;;;15.80;3.73;;;24.90;54.00;;;;;;5114526;27;20578;-74
2023/09/26 05:01:16;;;;;;;16.73;3.73;;;26.30;51.20;;;;;;5115948;27;20185;-78
2023/09/26 05:03:44;;;;;;;13.43;3.87;;;26.60;48.40;;;;;;5114659;27;20197;-78
2023/09/26 05:06:12;;;;;;;11.77;3.53;;;26.20;48.90;;;;;;5117887;27;20314;-73
2023/09/26 05:08:41;;;;;;;10.87;2.83;;;26.70;48.40;;;;;;5114367;27;20654;-75
2023/09/26 05:11:14;;;;;;;12.50;3.53;;;25.50;50.50;;;;;;5117911;27;20185;-77
2023/09/26 05:13:43;;;;;;;13.60;3.10;;;25.70;51.10;;;;;;5113052;27;20191;-76
2023/09/26 05:16:11;;;;;;;10.97;3.10;;;26.60;49.00;;;;;;5118373;27;20242;-76
2023/09/26 05:18:41;;;;;;;15.10;3.47;;;26.00;49.80;;;;;;5119853;27;20193;-77
2023/09/26 05:21:11;;;;;;;14.50;3.17;;;25.90;49.10;;;;;;5118754;27;20185;-76
2023/09/26 05:23:39;;;;;;;10.57;3.07;;;25.90;49.50;;;;;;5119582;27;20273;-76
2023/09/26 05:26:13;;;;;;;10.47;3.33;;;26.30;48.80;;;;;;5119130;27;20194;-74
2023/09/26 05:28:41;;;;;;;12.20;3.03;;;26.90;47.60;;;;;;5118837;27;20188;-79
2023/09/26 05:31:08;;;;;;;13.23;3.73;;;27.00;47.10;;;;;;5109908;27;20644;-75
2023/09/26 05:33:36;;;;;;;10.67;3.03;;;27.60;45.60;;;;;;5119280;27;20181;-72
2023/09/26 05:36:04;;;;;;;15.67;3.40;;;27.50;44.50;;;;;;5117560;27;20689;-74
2023/09/26 05:38:32;;;;;;;10.93;3.43;;;26.80;46.90;;;;;;5116696;27;20186;-75
2023/09/26 05:40:59;;;;;;;15.67;3.43;;;26.90;47.10;;;;;;5114021;27;20203;-75
2023/09/26 05:43:30;;;;;;;12.30;2.97;;;27.70;44.70;;;;;;5114355;27;20190;-76
2023/09/26 05:45:59;;;;;;;12.97;2.77;;;27.00;46.50;;;;;;5114809;27;20189;-72
2023/09/26 05:48:27;;;;;;;14.83;3.23;;;26.50;46.90;;;;;;5112614;27;20312;-71
2023/09/26 05:51:04;;;;;;;11.70;3.10;;;25.20;49.20;;;;;;5115314;27;20187;-71
2023/09/26 05:53:32;;;;;;;12.67;3.33;;;23.80;52.10;;;;;;5114041;27;20262;-72
2023/09/26 05:56:00;;;;;;;9.60;3.10;;;23.30;53.50;;;;;;5111424;27;20655;-73
2023/09/26 05:58:27;;;;;;;17.30;3.40;;;23.80;53.20;;;;;;5115493;27;20191;-72
2023/09/26 06:00:56;;;;;;;14.43;3.40;;;24.10;52.10;;;;;;5105367;27;20185;-71
2023/09/26 06:03:24;;;;;;;15.40;3.43;;;24.50;50.80;;;;;;5115421;27;20283;-72
2023/09/26 06:05:51;;;;;;;11.47;2.87;;;24.60;51.30;;;;;;5113401;27;20656;-72
2023/09/26 06:08:22;;;;;;;11.70;3.13;;;24.20;51.90;;;;;;5119710;27;20604;-73
2023/09/26 06:10:53;;;;;;;10.83;3.00;;;23.40;53.30;;;;;;5109207;27;20190;-74
2023/09/26 06:13:21;;;;;;;8.33;2.90;;;22.90;54.50;;;;;;5115499;27;20544;-75
2023/09/26 06:15:48;;;;;;;16.80;3.60;;;22.40;54.90;;;;;;5115552;27;20188;-71
2023/09/26 06:18:16;;;;;;;11.60;3.23;;;22.20;55.90;;;;;;5113173;27;20526;-74
2023/09/26 06:20:44;;;;;;;12.50;3.10;;;21.80;57.20;;;;;;5120426;27;20268;-73
2023/09/26 06:23:13;;;;;;;16.27;3.23;;;21.50;59.20;;;;;;5118660;27;20538;-74
2023/09/26 06:25:40;;;;;;;12.67;3.00;;;21.20;60.50;;;;;;5117809;27;20189;-75
2023/09/26 06:28:08;;;;;;;10.17;2.70;;;20.90;61.10;;;;;;5115966;27;20265;-75
2023/09/26 06:30:35;;;;;;;15.33;3.40;;;20.80;61.40;;;;;;5096902;28;20210;-73
2023/09/26 06:33:02;;;;;;;17.80;3.47;;;20.70;61.50;;;;;;5113024;27;20506;-74
2023/09/26 06:35:32;;;;;;;16.70;5.77;;;20.60;61.50;;;;;;5115902;27;20225;-73
2023/09/26 06:37:59;;;;;;;13.43;3.40;;;20.50;62.50;;;;;;5110653;27;20178;-76
2023/09/26 06:40:26;;;;;;;15.60;3.50;;;20.50;62.80;;;;;;5113954;27;20174;-74
2023/09/26 06:42:56;;;;;;;18.40;3.90;;;20.50;63.30;;;;;;5114297;27;20536;-76
2023/09/26 06:45:24;;;;;;;15.83;3.77;;;20.40;63.50;;;;;;5116159;27;20636;-76
2023/09/26 06:47:51;;;;;;;19.93;4.13;;;20.50;64.10;;;;;;5115128;27;20659;-73
2023/09/26 06:50:21;;;;;;;14.87;3.60;;;20.60;63.70;;;;;;5114288;27;20209;-73
2023/09/26 06:52:49;;;;;;;12.53;3.20;;;20.60;63.70;;;;;;5114199;27;20174;-73
2023/09/26 06:55:16;;;;;;;14.77;3.20;;;20.50;64.80;;;;;;5117307;27;20185;-74
2023/09/26 06:57:43;;;;;;;12.87;3.17;;;20.30;65.60;;;;;;5115134;27;20185;-75
2023/09/26 07:00:16;;;;;;;16.47;3.70;;;20.30;66.60;;;;;;5115458;27;20892;-75
2023/09/26 07:02:45;;;;;;;11.37;3.20;;;20.30;66.70;;;;;;5111778;27;20182;-73
2023/09/26 07:05:12;;;;;;;10.87;3.50;;;20.30;67.50;;;;;;5114403;27;20204;-78
2023/09/26 07:07:40;;;;;;;10.80;3.30;;;20.10;67.40;;;;;;5113746;27;20655;-74
2023/09/26 07:10:08;;;;;;;14.60;3.80;;;20.10;67.40;;;;;;5115343;28;20621;-76
2023/09/26 07:12:35;;;;;;;12.73;3.37;;;20.10;67.70;;;;;;5112512;27;20185;-74
2023/09/26 07:15:02;;;;;;;14.17;3.70;;;20.10;67.70;;;;;;5118655;27;20185;-77
2023/09/26 07:17:30;;;;;;;15.00;3.33;;;20.10;67.90;;;;;;5113774;27;20208;-78
2023/09/26 07:19:59;;;;;;;14.77;3.80;;;20.30;67.60;;;;;;5114728;27;20543;-77
2023/09/26 07:22:27;;;;;;;15.10;3.37;;;20.50;67.00;;;;;;5121098;27;20651;-79
2023/09/26 07:24:54;;;;;;;20.70;4.20;;;20.50;66.30;;;;;;5114840;27;20193;-77
2023/09/26 07:27:21;;;;;;;13.03;4.20;;;20.30;67.60;;;;;;5121118;27;20265;-78
2023/09/26 07:29:49;;;;;;;16.70;3.67;;;20.10;68.40;;;;;;5118905;27;20226;-74
2023/09/26 07:32:17;;;;;;;19.33;4.07;;;20.10;68.90;;;;;;5113311;27;20181;-81
2023/09/26 07:34:44;;;;;;;17.67;3.90;;;19.80;70.20;;;;;;5082535;28;20262;-77
2023/09/26 07:37:15;;;;;;;14.83;6.07;;;19.80;70.70;;;;;;5079648;28;20255;-79
2023/09/26 07:39:45;;;;;;;19.83;6.27;;;19.70;71.20;;;;;;5073869;28;20179;-81
2023/09/26 07:42:15;;;;;;;17.83;7.07;;;19.60;71.70;;;;;;5077097;28;20187;-74
2023/09/26 07:44:42;;;;;;;14.97;3.90;;;19.60;71.70;;;;;;5076007;28;20255;-80
2023/09/26 07:47:09;;;;;;;22.80;4.07;;;19.50;71.90;;;;;;5074331;28;20649;-73
2023/09/26 07:49:37;;;;;;;13.97;3.67;;;19.40;72.70;;;;;;5075830;28;20219;-79
2023/09/26 07:52:04;;;;;;;15.03;3.47;;;19.40;72.70;;;;;;5075704;28;20189;-80
2023/09/26 07:54:32;;;;;;;17.63;4.00;;;19.30;72.90;;;;;;5077398;28;20191;-76
2023/09/26 07:57:00;;;;;;;15.03;3.63;;;19.30;73.50;;;;;;5076331;28;20607;-74
2023/09/26 07:59:27;;;;;;;17.67;3.93;;;19.30;73.40;;;;;;5076781;28;20270;-73
2023/09/26 08:01:54;;;;;;;12.07;3.50;;;19.30;73.50;;;;;;5071306;28;21036;-74
2023/09/26 08:04:22;;;;;;;14.90;3.83;;;19.30;73.60;;;;;;5069139;28;20218;-74
2023/09/26 08:06:49;;;;;;;15.30;3.67;;;19.20;73.90;;;;;;5080229;28;20182;-73
2023/09/26 08:09:17;;;;;;;19.00;4.40;;;19.20;74.00;;;;;;5075699;28;20207;-76
2023/09/26 08:11:45;;;;;;;17.43;3.80;;;19.10;74.20;;;;;;5079318;28;20225;-75
2023/09/26 08:14:12;;;;;;;15.73;3.97;;;19.20;74.40;;;;;;5078607;28;20190;-75
2023/09/26 08:16:39;;;;;;;15.00;3.50;;;19.20;74.20;;;;;;5072231;28;20221;-75
2023/09/26 08:19:07;;;;;;;23.53;3.83;;;19.20;74.00;;;;;;5072755;28;20699;-78
2023/09/26 08:21:34;;;;;;;16.33;4.07;;;19.20;74.00;;;;;;5074190;28;20186;-75
2023/09/26 08:24:03;;;;;;;19.27;4.67;;;19.20;74.30;;;;;;5070730;28;20183;-76
2023/09/26 08:26:30;;;;;;;15.43;3.83;;;19.20;74.60;;;;;;5074804;28;20207;-74
2023/09/26 08:28:58;;;;;;;16.97;4.40;;;19.10;74.80;;;;;;5073096;28;20199;-75
2023/09/26 08:31:25;;;;;;;16.10;4.20;;;19.10;75.00;;;;;;5075480;28;20282;-76
2023/09/26 08:33:53;;;;;;;19.00;3.97;;;19.00;75.20;;;;;;5064916;28;20657;-75
2023/09/26 08:36:22;;;;;;;13.53;4.10;;;19.10;75.40;;;;;;5076101;28;20683;-76
2023/09/26 08:38:51;;;;;;;16.80;4.13;;;19.00;75.70;;;;;;5074377;28;20190;-74
2023/09/26 08:41:20;;;;;;;17.37;4.73;;;19.00;75.50;;;;;;5069696;28;20237;-74
2023/09/26 08:43:48;;;;;;;20.50;4.57;;;19.00;75.90;;;;;;5083025;28;20206;-72
2023/09/26 08:46:15;;;;;;;16.90;4.60;;;19.10;76.10;;;;;;5072765;28;20586;-73
2023/09/26 08:48:44;;;;;;;16.73;4.20;;;19.00;75.90;;;;;;5073678;28;20207;-76
2023/09/26 08:51:11;;;;;;;14.83;3.73;;;19.00;76.10;;;;;;5075539;28;20190;-76
2023/09/26 08:53:39;;;;;;;21.07;4.13;;;19.00;76.20;;;;;;5079320;28;20259;-72
2023/09/26 08:56:07;;;;;;;15.00;4.40;;;19.00;76.50;;;;;;5067687;28;20182;-78
2023/09/26 08:58:35;;;;;;;15.53;4.13;;;18.90;76.50;;;;;;5073940;28;20175;-75
2023/09/26 09:01:04;;;;;;;16.43;4.23;;;18.90;76.80;;;;;;5078432;28;20187;-81
2023/09/26 09:03:32;;;;;;;15.57;4.00;;;18.90;77.10;;;;;;5076140;28;20179;-77
2023/09/26 09:06:00;;;;;;;15.83;5.23;;;18.90;77.50;;;;;;5079444;28;20328;-77
2023/09/26 09:08:27;;;;;;;17.20;4.93;;;18.90;77.60;;;;;;5079096;28;20191;-75
2023/09/26 09:10:56;;;;;;;18.90;5.03;;;18.90;77.90;;;;;;5073565;28;20191;-78
2023/09/26 09:13:42;;;;;;;17.13;4.30;;;18.90;78.10;;;;;;5077235;28;20191;-77
2023/09/26 09:16:18;;;;;;;15.73;3.90;;;18.90;78.40;;;;;;5078158;28;20207;-75
2023/09/26 09:18:50;;;;;;;13.17;3.40;;;18.80;79.00;;;;;;5076397;28;20189;-78
2023/09/26 09:21:22;;;;;;;15.37;3.67;;;18.80;79.80;;;;;;5072153;28;20182;-78
2023/09/26 09:23:50;;;;;;;21.20;4.03;;;18.90;80.00;;;;;;5069014;28;20171;-76
2023/09/26 09:26:21;;;;;;;15.57;3.80;;;18.80;80.50;;;;;;5059759;28;20183;-80
2023/09/26 09:28:51;;;;;;;18.80;4.30;;;18.80;81.60;;;;;;5075731;28;20222;-85
2023/09/26 09:31:18;;;;;;;16.77;4.50;;;18.60;82.70;;;;;;5073706;28;20186;-74
2023/09/26 09:33:55;;;;;;;22.50;4.73;;;18.50;83.40;;;;;;5083397;28;20189;-71
2023/09/26 09:36:23;;;;;;;18.47;4.77;;;18.50;84.20;;;;;;5095003;28;20575;-74
2023/09/26 09:38:51;;;;;;;20.37;4.53;;;18.40;85.00;;;;;;5096335;28;20242;-72
2023/09/26 09:41:19;;;;;;;24.77;4.80;;;18.40;85.40;;;;;;5089866;28;20542;-71
2023/09/26 09:43:47;;;;;;;19.47;4.47;;;18.30;85.70;;;;;;5102943;28;20201;-75
2023/09/26 09:46:17;;;;;;;21.97;5.27;;;18.30;86.50;;;;;;5099167;28;20190;-77
2023/09/26 09:48:46;;;;;;;11.70;4.07;;;18.20;86.30;;;;;;5102823;28;20194;-72
2023/09/26 09:51:15;;;;;;;20.77;5.97;;;18.20;86.70;;;;;;5093807;28;20572;-72
2023/09/26 09:53:55;;;;;;;18.80;5.97;;;18.20;87.20;;;;;;5089014;28;20235;-73
2023/09/26 09:56:24;;;;;;;18.73;5.97;;;18.30;87.60;;;;;;5089764;28;20234;-74
2023/09/26 09:58:56;;;;;;;17.83;5.77;;;18.30;87.80;;;;;;5099156;28;20210;-77
2023/09/26 10:01:26;;;;;;;19.87;5.83;;;18.20;88.00;;;;;;5093505;28;20248;-78
2023/09/26 10:03:53;;;;;;;17.73;5.73;;;18.20;88.10;;;;;;5093918;28;20178;-74
2023/09/26 10:06:23;;;;;;;20.17;5.63;;;18.10;88.00;;;;;;5097072;28;20243;-74
2023/09/26 10:08:51;;;;;;;20.00;6.03;;;18.20;88.30;;;;;;5101547;28;20213;-75
2023/09/26 10:11:19;;;;;;;17.07;5.30;;;18.20;88.00;;;;;;5085862;28;20645;-76
2023/09/26 10:13:47;;;;;;;16.30;5.80;;;18.10;88.20;;;;;;5097728;28;20214;-74
2023/09/26 10:16:17;;;;;;;20.87;6.17;;;18.10;88.10;;;;;;5092796;28;20770;-78
2023/09/26 10:18:52;;;;;;;17.97;6.43;;;18.10;88.40;;;;;;5095290;28;20701;-73
2023/09/26 10:21:26;;;;;;;17.17;6.10;;;18.00;88.50;;;;;;5085661;28;20182;-73
2023/09/26 10:24:06;;;;;;;17.33;6.80;;;18.10;88.50;;;;;;5090481;28;20186;-73
2023/09/26 10:26:34;;;;;;;18.47;7.13;;;18.00;88.80;;;;;;5096744;28;20183;-76
2023/09/26 10:29:25;;;;;;;20.07;7.53;;;18.10;89.00;;;;;;5094245;28;20213;-75
2023/09/26 10:32:08;;;;;;;20.03;7.53;;;17.90;89.20;;;;;;5094193;28;20265;-72
2023/09/26 10:34:39;;;;;;;19.37;7.90;;;17.90;89.50;;;;;;5099267;28;20232;-72
2023/09/26 10:37:15;;;;;;;22.20;8.73;;;18.00;89.70;;;;;;5117501;27;20186;-77
2023/09/26 10:39:43;;;;;;;16.93;7.83;;;18.00;89.80;;;;;;5078836;28;20192;-78
2023/09/26 10:42:15;;;;;;;24.27;8.13;;;18.00;89.70;;;;;;5114096;27;20678;-74
2023/09/26 10:44:44;;;;;;;28.27;9.33;;;18.00;89.60;;;;;;5111094;27;20243;-73
2023/09/26 10:47:13;;;;;;;22.17;8.60;;;17.90;89.70;;;;;;5116519;27;20177;-76
2023/09/26 10:49:41;;;;;;;26.77;8.30;;;17.90;89.60;;;;;;5120835;27;20231;-73
2023/09/26 10:52:09;;;;;;;20.13;8.47;;;18.00;89.50;;;;;;5111494;27;20224;-72
2023/09/26 10:54:41;;;;;;;16.60;8.03;;;17.90;89.30;;;;;;5118979;27;20187;-70
2023/09/26 10:57:16;;;;;;;19.40;8.53;;;17.80;88.60;;;;;;5113978;27;20227;-76
2023/09/26 10:59:44;;;;;;;23.93;8.77;;;17.80;88.70;;;;;;5118501;27;20642;-73
2023/09/26 11:02:11;;;;;;;17.83;8.07;;;17.80;88.80;;;;;;5117628;27;20238;-72
2023/09/26 11:04:39;;;;;;;23.73;9.30;;;17.80;88.60;;;;;;5115982;27;20180;-72
2023/09/26 11:07:06;;;;;;;16.93;10.27;;;17.90;88.70;;;;;;5107979;27;20188;-75
2023/09/26 11:09:40;;;;;;;21.57;9.97;;;18.00;88.70;;;;;;5115285;27;20569;-73
2023/09/26 11:12:08;;;;;;;16.13;10.10;;;18.00;88.80;;;;;;5111375;27;20223;-72
2023/09/26 11:14:36;;;;;;;22.87;10.10;;;17.90;88.60;;;;;;5110824;27;20189;-71
2023/09/26 11:17:04;;;;;;;22.47;9.97;;;17.90;88.60;;;;;;5117124;27;20523;-74
2023/09/26 11:19:34;;;;;;;17.47;8.83;;;17.80;88.10;;;;;;5121973;27;20180;-73
2023/09/26 11:22:02;;;;;;;21.23;8.70;;;17.80;88.00;;;;;;5110999;27;20197;-71
2023/09/26 11:24:33;;;;;;;17.73;8.97;;;17.80;88.10;;;;;;5106313;27;20202;-73
2023/09/26 11:27:04;;;;;;;13.30;9.07;;;17.80;87.80;;;;;;5114609;27;20190;-71
2023/09/26 11:29:34;;;;;;;16.97;8.70;;;17.80;87.70;;;;;;5119473;27;20220;-72
2023/09/26 11:32:06;;;;;;;15.37;7.63;;;17.70;87.30;;;;;;5097572;27;20193;-72
2023/09/26 11:34:35;;;;;;;12.80;7.30;;;17.70;87.20;;;;;;5114308;27;20221;-77
2023/09/26 11:37:07;;;;;;;12.20;7.27;;;17.80;87.10;;;;;;5116060;27;20186;-74
2023/09/26 11:39:34;;;;;;;14.07;7.93;;;17.80;86.90;;;;;;5112670;27;20193;-73
2023/09/26 11:42:08;;;;;;;16.97;8.20;;;17.80;87.00;;;;;;5112830;27;20210;-75
2023/09/26 11:44:36;;;;;;;17.73;8.83;;;17.80;87.10;;;;;;5124166;27;20639;-71
2023/09/26 11:47:07;;;;;;;10.10;7.30;;;17.80;87.10;;;;;;5116378;27;20737;-74
2023/09/26 11:49:35;;;;;;;12.40;8.03;;;17.90;87.20;;;;;;5111539;27;20215;-75
2023/09/26 11:52:03;;;;;;;11.97;8.73;;;17.90;87.20;;;;;;5113921;27;20193;-73
2023/09/26 11:54:30;;;;;;;14.97;8.93;;;17.90;87.10;;;;;;5119408;27;20178;-73
2023/09/26 11:56:58;;;;;;;18.67;8.77;;;17.90;87.00;;;;;;5117657;27;20174;-75
2023/09/26 11:59:25;;;;;;;16.40;8.90;;;17.90;87.10;;;;;;5100475;27;20173;-75
2023/09/26 12:01:54;;;;;;;19.93;9.10;;;17.90;87.30;;;;;;5115439;27;20189;-81
2023/09/26 12:04:22;;;;;;;14.43;10.20;;;17.90;87.40;;;;;;5096641;28;20270;-75
2023/09/26 12:06:49;;;;;;;22.47;10.90;;;17.90;87.20;;;;;;5115878;27;20265;-71
2023/09/26 12:09:21;;;;;;;16.73;10.77;;;17.90;87.20;;;;;;5116237;27;20229;-78
2023/09/26 12:12:00;;;;;;;18.90;9.77;;;17.80;87.40;;;;;;5111137;27;20180;-79
2023/09/26 12:14:27;;;;;;;17.33;10.23;;;17.90;87.40;;;;;;5112654;27;20191;-73
2023/09/26 12:16:56;;;;;;;24.07;12.13;;;17.90;87.40;;;;;;5115190;27;20606;-74
2023/09/26 12:19:23;;;;;;;17.80;12.27;;;18.00;87.60;;;;;;5110946;27;20203;-74
2023/09/26 12:21:51;;;;;;;22.43;12.47;;;18.00;87.80;;;;;;5109304;27;20209;-72
2023/09/26 12:24:21;;;;;;;19.17;11.30;;;17.90;87.70;;;;;;5101156;28;20230;-73
2023/09/26 12:26:49;;;;;;;19.00;12.83;;;17.80;87.80;;;;;;5113038;27;20685;-72
2023/09/26 12:29:16;;;;;;;18.00;12.20;;;17.80;87.90;;;;;;5113771;27;20205;-71
2023/09/26 12:31:44;;;;;;;25.87;13.33;;;17.80;88.20;;;;;;5116768;27;20178;-77
2023/09/26 12:34:14;;;;;;;17.07;13.57;;;17.80;88.10;;;;;;5118166;27;20211;-77
2023/09/26 12:36:42;;;;;;;29.60;15.20;;;17.80;88.50;;;;;;5115124;28;20323;-74
2023/09/26 12:39:09;;;;;;;21.07;15.40;;;17.80;88.60;;;;;;5111658;28;20198;-73
2023/09/26 12:41:37;;;;;;;20.87;13.90;;;17.80;88.80;;;;;;5118333;28;20641;-74